Big Bear Station Historical Data
Daily Summary for May 28, 2017 Units:  English    Metric   Both
« Previous Day
Next Day »
Daily Weekly Monthly Yearly Custom
  High: Low: Average:
Temperature: 78.1 °F 38.3 °F 57.4 °F
Dew Point: 42.6 °F 24.3 °F 34.2 °F
Humidity: 81 % 18 % 47 %
Wind Speed: 7.3 mph 0.0 mph 2.2 mph
Wind Gust: -999.0 mph - -
Wind:- - West
Pressure: 30.24 in 30.21 in -
Precipitation: 0.00 in    
Historical Graphs
 
 
Tabular Data for May 28, 2017
Time Temperature Dew Point Pressure Wind Wind Speed Wind Gust Humidity Rainfall Rate (Hourly)
00:01 43.5 °F 25.6 °F 30.23 in Calm   -999.0 mph 49 % 0 in
00:16 43.2 °F 24.3 °F 30.23 in Calm   -999.0 mph 47 % 0 in
00:31 43.0 °F 25.1 °F 30.23 in South 1.1 mph -999.0 mph 49 % 0 in
00:47 42.3 °F 25.4 °F 30.23 in Calm   -999.0 mph 51 % 0 in
01:02 41.9 °F 26.5 °F 30.23 in Calm   -999.0 mph 54 % 0 in
01:17 41.5 °F 26.1 °F 30.23 in Calm   -999.0 mph 54 % 0 in
01:32 41.0 °F 26.5 °F 30.22 in Calm   -999.0 mph 56 % 0 in
01:47 41.0 °F 29.8 °F 30.22 in South 1.1 mph -999.0 mph 64 % 0 in
02:03 40.6 °F 28.2 °F 30.22 in Calm   -999.0 mph 61 % 0 in
02:18 40.5 °F 29.3 °F 30.22 in Calm   -999.0 mph 64 % 0 in
02:33 40.1 °F 30.4 °F 30.22 in Calm   -999.0 mph 68 % 0 in
02:48 39.7 °F 31.4 °F 30.22 in Calm   -999.0 mph 72 % 0 in
03:03 39.9 °F 32.3 °F 30.22 in Calm   -999.0 mph 74 % 0 in
03:19 39.4 °F 31.5 °F 30.21 in Calm   -999.0 mph 73 % 0 in
03:35 39.6 °F 32.0 °F 30.21 in Calm   -999.0 mph 74 % 0 in
03:50 39.4 °F 32.8 °F 30.21 in Calm   -999.0 mph 77 % 0 in
04:05 39.6 °F 33.0 °F 30.21 in SSE 1.7 mph -999.0 mph 77 % 0 in
04:21 39.6 °F 33.0 °F 30.21 in Calm   -999.0 mph 77 % 0 in
04:36 39.4 °F 33.4 °F 30.21 in Calm   -999.0 mph 79 % 0 in
04:51 39.2 °F 33.2 °F 30.21 in Calm   -999.0 mph 79 % 0 in
05:06 39.0 °F 33.0 °F 30.21 in Calm   -999.0 mph 79 % 0 in
05:22 38.5 °F 32.9 °F 30.21 in Calm   -999.0 mph 80 % 0 in
05:37 38.3 °F 32.7 °F 30.22 in South 1.1 mph -999.0 mph 80 % 0 in
05:52 38.5 °F 32.9 °F 30.22 in Calm   -999.0 mph 80 % 0 in
06:07 38.7 °F 33.4 °F 30.22 in Calm   -999.0 mph 81 % 0 in
06:22 39.0 °F 33.7 °F 30.22 in Calm   -999.0 mph 81 % 0 in
06:38 39.4 °F 34.1 °F 30.22 in Calm   -999.0 mph 81 % 0 in
06:53 39.7 °F 34.3 °F 30.23 in Calm   -999.0 mph 81 % 0 in
07:08 40.3 °F 34.9 °F 30.23 in Calm   -999.0 mph 81 % 0 in
07:23 41.5 °F 36.1 °F 30.23 in Calm   -999.0 mph 81 % 0 in
07:38 43.0 °F 36.9 °F 30.23 in Calm   -999.0 mph 79 % 0 in
07:54 44.6 °F 36.5 °F 30.23 in Calm   -999.0 mph 73 % 0 in
08:09 47.1 °F 38.2 °F 30.23 in Calm   -999.0 mph 71 % 0 in
08:24 49.8 °F 37.3 °F 30.23 in NW 2.2 mph -999.0 mph 62 % 0 in
08:39 54.3 °F 35.5 °F 30.23 in Calm   -999.0 mph 49 % 0 in
08:55 59.0 °F 32.1 °F 30.23 in NE 2.2 mph -999.0 mph 36 % 0 in
09:10 61.7 °F 30.7 °F 30.24 in WNW 3.7 mph -999.0 mph 31 % 0 in
09:25 63.3 °F 30.5 °F 30.23 in NW 6.8 mph -999.0 mph 29 % 0 in
09:40 65.1 °F 30.3 °F 30.24 in East 5.8 mph -999.0 mph 27 % 0 in
09:56 65.8 °F 29.9 °F 30.23 in North 6.8 mph -999.0 mph 26 % 0 in
10:12 66.6 °F 28.7 °F 30.23 in NNW 4.2 mph -999.0 mph 24 % 0 in
10:27 66.6 °F 30.6 °F 30.23 in NNE 4.2 mph -999.0 mph 26 % 0 in
10:43 68.4 °F 31.2 °F 30.23 in NE 2.2 mph -999.0 mph 25 % 0 in
10:58 69.6 °F 32.2 °F 30.23 in WSW 7.3 mph -999.0 mph 25 % 0 in
11:13 70.3 °F 30.7 °F 30.24 in West 2.2 mph -999.0 mph 23 % 0 in
11:28 71.4 °F 31.7 °F 30.24 in NNW 6.3 mph -999.0 mph 23 % 0 in
11:43 72.3 °F 31.3 °F 30.24 in West 2.7 mph -999.0 mph 22 % 0 in
11:59 72.9 °F 29.5 °F 30.24 in WNW 3.7 mph -999.0 mph 20 % 0 in
12:14 73.8 °F 31.4 °F 30.24 in NE 2.2 mph -999.0 mph 21 % 0 in
12:29 74.3 °F 31.8 °F 30.24 in NW 7.3 mph -999.0 mph 21 % 0 in
12:44 75.0 °F 31.2 °F 30.24 in NW 4.2 mph -999.0 mph 20 % 0 in
13:00 76.3 °F 32.3 °F 30.24 in WNW 4.7 mph -999.0 mph 20 % 0 in
13:15 76.8 °F 32.7 °F 30.24 in North 4.2 mph -999.0 mph 20 % 0 in
13:30 76.5 °F 31.2 °F 30.24 in NW 6.3 mph -999.0 mph 19 % 0 in
13:45 76.6 °F 32.5 °F 30.23 in North 5.8 mph -999.0 mph 20 % 0 in
14:01 77.2 °F 30.4 °F 30.23 in NW 5.3 mph -999.0 mph 18 % 0 in
14:16 77.5 °F 30.7 °F 30.23 in NNW 3.7 mph -999.0 mph 18 % 0 in
14:31 78.1 °F 31.1 °F 30.23 in West 3.7 mph -999.0 mph 18 % 0 in
14:46 76.1 °F 38.7 °F 30.22 in NW 4.7 mph -999.0 mph 26 % 0 in
15:02 76.5 °F 39.1 °F 30.22 in NW 6.8 mph -999.0 mph 26 % 0 in
15:17 75.9 °F 40.5 °F 30.22 in NNW 3.7 mph -999.0 mph 28 % 0 in
15:32 75.7 °F 38.4 °F 30.22 in NW 5.8 mph -999.0 mph 26 % 0 in
15:47 75.6 °F 39.3 °F 30.22 in WNW 7.3 mph -999.0 mph 27 % 0 in
16:03 74.8 °F 40.4 °F 30.22 in North 4.7 mph -999.0 mph 29 % 0 in
16:18 73.9 °F 41.4 °F 30.22 in North 5.3 mph -999.0 mph 31 % 0 in
16:33 74.1 °F 38.9 °F 30.22 in North 4.7 mph -999.0 mph 28 % 0 in
16:48 75.2 °F 40.8 °F 30.21 in WNW 5.3 mph -999.0 mph 29 % 0 in
17:04 75.6 °F 40.2 °F 30.21 in West 1.7 mph -999.0 mph 28 % 0 in
17:19 76.1 °F 40.6 °F 30.21 in NW 4.2 mph -999.0 mph 28 % 0 in
17:34 74.3 °F 40.0 °F 30.21 in NW 3.7 mph -999.0 mph 29 % 0 in
17:49 74.1 °F 38.9 °F 30.21 in SW 3.2 mph -999.0 mph 28 % 0 in
18:05 73.6 °F 41.1 °F 30.21 in NW 3.7 mph -999.0 mph 31 % 0 in
18:20 71.6 °F 42.5 °F 30.21 in NNW 4.2 mph -999.0 mph 35 % 0 in
18:35 70.9 °F 42.6 °F 30.21 in NW 5.3 mph -999.0 mph 36 % 0 in
18:50 69.3 °F 41.9 °F 30.21 in SW 4.7 mph -999.0 mph 37 % 0 in
19:06 68.9 °F 42.2 °F 30.22 in WNW 2.7 mph -999.0 mph 38 % 0 in
19:21 67.1 °F 40.6 °F 30.21 in Calm   -999.0 mph 38 % 0 in
19:36 63.9 °F 40.4 °F 30.21 in Calm   -999.0 mph 42 % 0 in
19:52 61.5 °F 41.1 °F 30.21 in Calm   -999.0 mph 47 % 0 in
20:07 59.4 °F 41.3 °F 30.22 in Calm   -999.0 mph 51 % 0 in
20:22 58.3 °F 40.2 °F 30.22 in Calm   -999.0 mph 51 % 0 in
20:38 56.7 °F 40.2 °F 30.22 in Calm   -999.0 mph 54 % 0 in
20:53 55.6 °F 37.8 °F 30.22 in Calm   -999.0 mph 51 % 0 in
21:08 54.1 °F 37.3 °F 30.22 in Calm   -999.0 mph 53 % 0 in
21:24 53.1 °F 36.9 °F 30.22 in Calm   -999.0 mph 54 % 0 in
21:39 52.3 °F 36.1 °F 30.22 in SSE 2.2 mph -999.0 mph 54 % 0 in
21:54 51.4 °F 34.8 °F 30.23 in South 1.7 mph -999.0 mph 53 % 0 in
22:09 51.1 °F 33.6 °F 30.23 in South 1.1 mph -999.0 mph 51 % 0 in
22:25 50.5 °F 33.5 °F 30.23 in South 1.7 mph -999.0 mph 52 % 0 in
22:40 49.8 °F 32.4 °F 30.23 in Calm   -999.0 mph 51 % 0 in
22:55 49.3 °F 34.3 °F 30.22 in South 1.7 mph -999.0 mph 56 % 0 in
23:10 48.7 °F 34.6 °F 30.22 in Calm   -999.0 mph 58 % 0 in
23:25 48.0 °F 34.4 °F 30.23 in Calm   -999.0 mph 59 % 0 in
23:56 46.9 °F 31.1 °F 30.22 in SSE 2.2 mph -999.0 mph 54 % 0 in
Big Bear CA Weather
Compliments of Weather Underground - 1.5 mb